Time;durP1;ratioP1;P1;durP2;ratioP2;P2;SDS_P1;SDS_P2;PMS_P1;PMS_P2;Temp;Humidity;BMP_temperature;BMP_pressure;BME280_temperature;BME280_humidity;BME280_pressure;Samples;Min_cycle;Max_cycle;Signal;HPM_P1;HPM_P2
2023/02/01 09:38:22;;;;;;;10.30;2.90;;;;;;;5.79;97.69;99249.81;5109695;28;20557;-83
2023/02/01 09:40:49;;;;;;;12.57;2.43;;;;;;;6.28;95.52;99258.50;5143499;27;39944;-81
2023/02/01 09:43:31;;;;;;;10.07;2.90;;;;;;;6.81;90.03;99286.16;5110001;28;41759;-81
2023/02/01 09:46:11;;;;;;;10.33;2.80;;;;;;;7.24;86.91;99289.69;5108399;28;41897;-81
2023/02/01 09:48:42;;;;;;;11.43;3.13;;;;;;;7.51;84.02;99304.31;5092096;28;42044;-81
2023/02/01 09:51:15;;;;;;;8.70;2.30;;;;;;;7.58;82.08;99305.75;5108990;28;40080;-81
2023/02/01 09:53:50;;;;;;;8.77;2.30;;;;;;;7.67;80.25;99319.44;5106833;28;41757;-82
2023/02/01 09:56:24;;;;;;;8.57;2.37;;;;;;;7.72;80.25;99322.75;5125760;27;43293;-81
2023/02/01 09:59:00;;;;;;;7.73;2.83;;;;;;;7.70;80.37;99316.69;5105819;28;43062;-82
2023/02/01 10:01:29;;;;;;;9.27;3.27;;;;;;;7.68;78.54;99308.84;5108457;28;40164;-81
2023/02/01 10:04:02;;;;;;;9.63;1.97;;;;;;;7.88;77.92;99329.09;5125877;27;40914;-81
2023/02/01 10:06:44;;;;;;;11.47;3.07;;;;;;;7.94;76.80;99323.53;5107221;28;42487;-84
2023/02/01 10:09:30;;;;;;;7.90;2.47;;;;;;;8.01;76.20;99330.25;5105730;28;42074;-82
2023/02/01 10:12:16;;;;;;;7.67;2.30;;;;;;;8.00;75.05;99347.00;5125689;27;40181;-81
2023/02/01 10:15:00;;;;;;;8.43;2.80;;;;;;;8.07;75.00;99351.06;5125606;27;41064;-83
2023/02/01 10:17:44;;;;;;;6.27;2.30;;;;;;;8.13;74.24;99329.72;5108572;28;42805;-83
2023/02/01 10:20:22;;;;;;;9.27;2.43;;;;;;;8.22;72.91;99337.19;5105358;28;42079;-83
2023/02/01 10:23:05;;;;;;;6.83;2.60;;;;;;;8.09;71.85;99321.97;5108162;28;40369;-83
2023/02/01 10:25:42;;;;;;;6.13;2.53;;;;;;;8.35;71.17;99360.41;5091209;28;43687;-81
2023/02/01 10:28:16;;;;;;;9.63;2.50;;;;;;;8.40;70.39;99342.59;5107847;28;42375;-82
2023/02/01 10:30:48;;;;;;;4.80;2.20;;;;;;;8.55;70.85;99347.16;5091313;28;42243;-83
2023/02/01 10:33:19;;;;;;;7.57;2.57;;;;;;;8.69;71.44;99328.88;5105963;28;40973;-82
2023/02/01 10:35:49;;;;;;;5.30;1.90;;;;;;;8.93;70.76;99330.34;5108554;28;40647;-81
2023/02/01 10:38:24;;;;;;;6.83;2.33;;;;;;;9.24;69.18;99328.88;5107776;28;43712;-82
2023/02/01 10:40:56;;;;;;;6.60;2.50;;;;;;;9.50;67.02;99344.28;5108268;28;42550;-81
2023/02/01 10:43:24;;;;;;;7.30;2.47;;;;;;;9.70;66.60;99338.84;5106273;28;40296;-83
2023/02/01 10:45:52;;;;;;;8.90;2.20;;;;;;;9.73;65.07;99330.75;5107815;28;41858;-81
2023/02/01 10:48:20;;;;;;;6.13;2.13;;;;;;;9.48;64.29;99346.16;5084871;28;42497;-83
2023/02/01 10:50:55;;;;;;;7.43;2.73;;;;;;;9.45;64.93;99334.88;5094228;28;42251;-83
2023/02/01 10:53:27;;;;;;;6.57;2.50;;;;;;;9.25;64.93;99328.81;5111315;28;39086;-83
2023/02/01 10:55:57;;;;;;;12.03;2.67;;;;;;;9.09;64.86;99326.97;5093932;28;40281;-82
2023/02/01 10:58:29;;;;;;;5.93;2.30;;;;;;;9.07;64.82;99313.84;5076941;28;41931;-82
2023/02/01 11:00:59;;;;;;;6.43;2.40;;;;;;;9.00;65.82;99315.09;5125253;27;42299;-83
2023/02/01 11:03:37;;;;;;;9.77;2.43;;;;;;;9.11;65.23;99310.13;5092030;28;39910;-83
2023/02/01 11:06:14;;;;;;;5.63;2.00;;;;;;;9.15;65.80;99308.19;5092352;28;41623;-84
2023/02/01 11:08:48;;;;;;;7.97;2.23;;;;;;;9.15;63.75;99303.75;5093808;28;42825;-83
2023/02/01 11:11:19;;;;;;;7.77;2.17;;;;;;;8.85;64.27;99255.06;5111137;28;41248;-84
2023/02/01 11:13:53;;;;;;;10.07;2.70;;;;;;;8.88;64.40;99282.19;5094292;28;39090;-82
2023/02/01 11:16:22;;;;;;;4.57;2.33;;;;;;;8.94;65.28;99296.88;5092288;28;41613;-83
2023/02/01 11:18:55;;;;;;;6.77;2.50;;;;;;;8.93;65.19;99289.88;5095088;28;42793;-82
2023/02/01 11:21:24;;;;;;;6.47;2.47;;;;;;;8.91;64.80;99287.31;5091552;28;42360;-85
2023/02/01 11:23:52;;;;;;;5.30;2.17;;;;;;;9.07;64.99;99282.13;5076958;28;38865;-84
2023/02/01 11:26:24;;;;;;;5.67;2.20;;;;;;;9.27;62.90;99305.78;5076339;28;40843;-82
2023/02/01 11:28:57;;;;;;;9.00;2.60;;;;;;;9.62;61.84;99301.38;5090596;28;42752;-81
2023/02/01 11:31:27;;;;;;;6.77;2.53;;;;;;;10.68;62.81;99272.72;5110234;28;41138;-84
2023/02/01 11:33:59;;;;;;;6.97;2.43;;;;;;;12.16;58.18;99299.31;5093692;28;39638;-82
2023/02/01 11:36:31;;;;;;;6.47;1.80;;;;;;;14.39;52.13;99331.44;5092905;28;40878;-83
2023/02/01 11:39:19;;;;;;;7.03;2.50;;;;;;;16.33;48.10;99345.41;5093448;28;42979;-84
2023/02/01 11:42:02;;;;;;;7.20;2.23;;;;;;;17.97;41.79;99368.59;5091644;28;42391;-84
2023/02/01 11:44:36;;;;;;;4.90;1.80;;;;;;;18.41;39.71;99377.38;5127696;27;39910;-83
2023/02/01 11:47:25;;;;;;;5.93;2.17;;;;;;;18.93;38.91;99379.88;5092932;28;42436;-83
2023/02/01 11:49:54;;;;;;;5.67;2.03;;;;;;;19.29;37.24;99386.47;5109945;28;41488;-85
2023/02/01 11:52:45;;;;;;;4.07;1.60;;;;;;;19.39;36.82;99365.03;5076025;28;41305;-83
2023/02/01 11:55:26;;;;;;;5.83;1.87;;;;;;;18.03;37.39;99357.38;5091420;28;39869;-84
2023/02/01 11:58:13;;;;;;;4.40;1.73;;;;;;;16.66;38.38;99374.03;5075725;28;41733;-83
2023/02/01 12:00:59;;;;;;;5.17;2.13;;;;;;;15.33;40.63;99337.91;5108863;27;42000;-82
2023/02/01 12:04:13;;;;;;;5.93;1.80;;;;;;;14.77;42.32;99344.75;5110507;28;41115;-82
2023/02/01 12:06:53;;;;;;;5.57;1.87;;;;;;;13.71;43.89;99313.13;5029896;28;38635;-82
2023/02/01 12:09:33;;;;;;;5.47;2.00;;;;;;;12.68;45.66;99274.78;5093436;28;40747;-82
2023/02/01 12:12:09;;;;;;;4.43;1.93;;;;;;;12.43;46.98;99329.47;5076120;28;42850;-83
2023/02/01 12:14:52;;;;;;;7.37;2.17;;;;;;;11.93;48.59;99297.22;5076412;28;42559;-83
2023/02/01 12:17:39;;;;;;;5.93;2.20;;;;;;;11.46;49.05;99284.97;5092817;28;39862;-83
2023/02/01 12:20:26;;;;;;;5.47;2.43;;;;;;;11.24;50.14;99273.94;5076202;28;42156;-83
2023/02/01 12:23:06;;;;;;;6.17;1.90;;;;;;;11.00;50.62;99279.69;5109722;28;43220;-82
2023/02/01 12:25:54;;;;;;;5.90;2.00;;;;;;;10.76;51.69;99255.44;5092665;28;41501;-81
2023/02/01 12:28:48;;;;;;;7.43;1.93;;;;;;;10.55;51.36;99239.91;5075920;28;39074;-83
2023/02/01 12:31:41;;;;;;;4.37;1.97;;;;;;;10.42;52.40;99259.13;5072457;28;41334;-83
2023/02/01 12:34:35;;;;;;;7.20;1.87;;;;;;;10.12;52.88;99247.56;5075477;28;41344;-84
2023/02/01 12:37:14;;;;;;;6.30;2.27;;;;;;;10.13;53.19;99254.56;5083229;28;43363;-82
2023/02/01 12:39:51;;;;;;;6.30;1.93;;;;;;;10.02;53.38;99231.31;5109486;28;39042;-83
2023/02/01 12:42:24;;;;;;;5.17;2.23;;;;;;;10.08;53.62;99236.28;5092517;28;41782;-82
2023/02/01 12:44:56;;;;;;;6.10;2.07;;;;;;;10.04;54.33;99210.06;5123376;27;42915;-82
2023/02/01 12:47:29;;;;;;;6.23;2.20;;;;;;;10.05;54.46;99209.13;5092520;28;41942;-83
2023/02/01 12:50:02;;;;;;;7.17;2.50;;;;;;;9.91;53.98;99219.59;5090785;28;39860;-82
2023/02/01 12:52:43;;;;;;;3.97;1.57;;;;;;;9.88;54.18;99217.16;5092429;28;41612;-82
2023/02/01 12:55:18;;;;;;;4.10;1.70;;;;;;;9.89;54.68;99224.16;5092177;28;41730;-82
2023/02/01 12:57:51;;;;;;;4.50;1.70;;;;;;;9.92;55.00;99230.09;5075013;28;41155;-82
2023/02/01 13:00:26;;;;;;;4.13;1.90;;;;;;;9.49;55.36;99178.66;5075682;28;39010;-82
2023/02/01 13:03:04;;;;;;;5.63;2.00;;;;;;;9.94;55.92;99238.81;5108654;28;40697;-83
2023/02/01 13:05:38;;;;;;;6.37;2.10;;;;;;;9.81;55.15;99215.75;5090208;28;42887;-82
2023/02/01 13:08:09;;;;;;;6.07;2.27;;;;;;;9.90;56.14;99220.53;5092775;28;41917;-83
2023/02/01 13:10:42;;;;;;;10.47;2.43;;;;;;;9.77;55.44;99211.59;5091495;28;40236;-85
2023/02/01 13:13:19;;;;;;;7.27;2.00;;;;;;;9.68;55.62;99189.97;5092747;28;41378;-82
2023/02/01 13:15:52;;;;;;;7.60;2.20;;;;;;;9.83;55.75;99208.59;5074654;28;41704;-83
2023/02/01 13:18:26;;;;;;;6.67;2.00;;;;;;;9.53;55.45;99196.06;5091805;28;42450;-84
2023/02/01 13:20:59;;;;;;;6.87;2.10;;;;;;;9.50;56.54;99201.53;5074552;28;38865;-85
2023/02/01 13:23:30;;;;;;;8.27;2.10;;;;;;;9.58;56.82;99194.03;5074717;28;41436;-82
2023/02/01 13:25:59;;;;;;;4.70;1.90;;;;;;;9.52;56.66;99186.41;5088718;28;42893;-84
2023/02/01 13:28:29;;;;;;;5.00;2.03;;;;;;;9.52;56.74;99194.34;5074655;28;41551;-84
2023/02/01 13:31:10;;;;;;;6.13;1.93;;;;;;;9.28;56.36;99174.47;5091588;28;39950;-82
2023/02/01 13:33:54;;;;;;;5.80;1.80;;;;;;;9.27;56.63;99162.22;5074891;28;40823;-82
2023/02/01 13:36:35;;;;;;;5.53;1.97;;;;;;;9.25;57.43;99180.81;5073947;28;43468;-83
2023/02/01 13:39:40;;;;;;;4.07;1.70;;;;;;;9.04;57.61;99159.91;5108575;28;41125;-82
2023/02/01 13:42:17;;;;;;;5.97;1.80;;;;;;;9.07;58.04;99181.75;5074272;28;39054;-84
2023/02/01 13:44:48;;;;;;;5.13;2.00;;;;;;;8.93;58.21;99166.59;5091740;28;40621;-83
2023/02/01 13:47:26;;;;;;;5.43;1.93;;;;;;;8.94;58.53;99178.88;5074186;28;42885;-84
2023/02/01 13:49:58;;;;;;;5.70;2.43;;;;;;;8.86;58.99;99178.41;5108284;28;41324;-84
2023/02/01 13:52:38;;;;;;;7.07;2.30;;;;;;;8.87;58.92;99177.47;5090905;28;39402;-82
2023/02/01 13:55:25;;;;;;;8.17;2.10;;;;;;;8.86;59.35;99186.34;5091762;28;41904;-83
2023/02/01 13:58:00;;;;;;;6.87;1.93;;;;;;;8.79;59.19;99169.06;5092217;28;42754;-83
2023/02/01 14:00:31;;;;;;;7.03;2.00;;;;;;;8.74;59.01;99194.00;5091553;28;41550;-83
2023/02/01 14:03:11;;;;;;;8.80;2.63;;;;;;;8.72;59.55;99186.16;5090995;28;39962;-82
2023/02/01 14:06:18;;;;;;;6.27;2.33;;;;;;;8.69;59.35;99181.03;5089512;28;42563;-82
2023/02/01 14:09:08;;;;;;;6.30;1.70;;;;;;;8.70;59.35;99181.88;5091197;28;43811;-83
2023/02/01 14:11:39;;;;;;;6.03;2.20;;;;;;;8.64;59.01;99173.34;5107884;28;41222;-82
2023/02/01 14:14:44;;;;;;;8.47;1.90;;;;;;;8.69;59.13;99175.75;5125627;27;39853;-83
2023/02/01 14:17:37;;;;;;;9.67;2.17;;;;;;;8.61;59.09;99162.09;5074113;28;40717;-82
2023/02/01 14:20:45;;;;;;;8.93;3.07;;;;;;;8.61;59.49;99167.38;5091235;28;42927;-81
2023/02/01 14:23:21;;;;;;;7.97;1.80;;;;;;;8.62;59.01;99179.63;5089786;28;43072;-82
2023/02/01 14:26:01;;;;;;;3.97;2.00;;;;;;;8.54;59.31;99171.22;5125535;27;40450;-83
2023/02/01 14:28:31;;;;;;;6.73;1.83;;;;;;;8.59;59.07;99162.16;5092508;28;42597;-82
2023/02/01 14:31:00;;;;;;;5.13;1.60;;;;;;;8.49;59.34;99152.13;5094023;28;41901;-82
2023/02/01 14:33:29;;;;;;;6.70;1.93;;;;;;;8.65;59.33;99169.75;5077694;28;42229;-81
2023/02/01 14:36:08;;;;;;;6.53;2.07;;;;;;;8.61;59.69;99146.25;5077361;28;38848;-82
2023/02/01 14:38:40;;;;;;;5.17;1.87;;;;;;;8.74;59.00;99159.69;5095194;28;41615;-82
2023/02/01 14:41:36;;;;;;;7.63;1.90;;;;;;;8.85;59.45;99155.56;5092797;28;42892;-82
2023/02/01 14:44:28;;;;;;;8.80;2.20;;;;;;;8.79;59.27;99129.47;5091309;28;42422;-82
2023/02/01 14:47:33;;;;;;;7.67;2.90;;;;;;;8.93;59.02;99137.53;5092526;28;39881;-82
2023/02/01 14:50:36;;;;;;;6.23;1.90;;;;;;;9.02;59.00;99142.34;5094160;28;41139;-82
2023/02/01 14:53:18;;;;;;;6.77;2.20;;;;;;;9.29;57.56;99139.19;5093239;28;44237;-82
2023/02/01 14:55:51;;;;;;;4.20;1.97;;;;;;;9.37;57.28;99147.59;5077320;28;41497;-81
2023/02/01 14:58:33;;;;;;;8.17;1.90;;;;;;;9.51;57.23;99155.66;5094208;28;39092;-84
2023/02/01 15:01:04;;;;;;;4.53;2.33;;;;;;;9.39;57.14;99152.81;5090954;28;42616;-82
2023/02/01 15:03:42;;;;;;;6.70;2.57;;;;;;;9.42;57.61;99161.41;5076666;28;41598;-82
2023/02/01 15:06:23;;;;;;;5.07;2.13;;;;;;;9.27;57.68;99130.53;5093800;28;41192;-83
2023/02/01 15:08:55;;;;;;;7.10;1.80;;;;;;;9.23;57.65;99137.75;5077290;28;38908;-84
2023/02/01 15:11:24;;;;;;;8.63;2.03;;;;;;;9.20;57.65;99137.03;5091360;28;42489;-83
2023/02/01 15:13:56;;;;;;;5.47;1.60;;;;;;;9.16;57.98;99143.41;5093940;28;43951;-81
2023/02/01 15:16:26;;;;;;;11.23;2.53;;;;;;;9.06;58.38;99139.53;5095399;28;41138;-83
2023/02/01 15:19:11;;;;;;;9.63;2.20;;;;;;;8.97;58.50;99133.81;5137618;27;39831;-81
2023/02/01 15:21:47;;;;;;;7.73;2.40;;;;;;;9.02;58.15;99125.66;5121355;28;40388;-82
2023/02/01 15:24:21;;;;;;;9.03;2.20;;;;;;;8.90;58.72;99135.03;5087849;28;41648;-81
2023/02/01 15:26:52;;;;;;;9.67;2.50;;;;;;;8.75;59.26;99122.66;5100173;28;42826;-81
2023/02/01 15:29:21;;;;;;;7.23;2.40;;;;;;;8.78;59.02;99133.03;5101523;28;38918;-83
2023/02/01 15:31:51;;;;;;;10.47;2.30;;;;;;;8.82;59.00;99149.59;5077219;28;40697;-83
2023/02/01 15:34:21;;;;;;;7.63;2.27;;;;;;;8.74;59.66;99142.06;5094755;28;41700;-81
2023/02/01 15:36:50;;;;;;;8.30;2.30;;;;;;;8.67;59.57;99145.91;5094190;28;41201;-82
2023/02/01 15:39:25;;;;;;;6.90;2.00;;;;;;;8.35;59.88;99091.25;5093951;28;39817;-83
2023/02/01 15:41:58;;;;;;;6.40;1.80;;;;;;;8.60;59.66;99128.69;5077075;28;41231;-83
2023/02/01 15:44:33;;;;;;;7.47;1.97;;;;;;;8.56;60.16;99135.91;5092126;28;42949;-83
2023/02/01 15:47:06;;;;;;;6.17;1.87;;;;;;;8.49;60.21;99131.88;5093286;28;41044;-84
2023/02/01 15:49:40;;;;;;;8.83;2.80;;;;;;;8.41;60.24;99127.88;5076701;28;40344;-84
2023/02/01 15:52:22;;;;;;;6.43;2.30;;;;;;;8.28;60.61;99120.53;5092203;28;41682;-82
2023/02/01 15:54:53;;;;;;;9.80;2.30;;;;;;;8.37;59.96;99126.34;5091021;28;42981;-82
2023/02/01 15:57:30;;;;;;;10.73;2.63;;;;;;;8.44;60.63;99138.28;5092011;28;43248;-82
2023/02/01 15:59:59;;;;;;;4.80;1.73;;;;;;;8.33;60.27;99130.06;5093005;28;40706;-82
2023/02/01 16:02:34;;;;;;;8.90;2.43;;;;;;;8.22;60.98;99120.84;5094437;28;42930;-82
2023/02/01 16:05:03;;;;;;;8.50;2.10;;;;;;;8.29;60.71;99129.31;5093272;28;42797;-82
2023/02/01 16:07:34;;;;;;;9.33;2.63;;;;;;;8.29;60.98;99135.44;5109873;28;41366;-83
2023/02/01 16:10:21;;;;;;;9.17;2.60;;;;;;;8.29;61.00;99129.31;5089793;28;39982;-81
2023/02/01 16:12:54;;;;;;;8.80;2.60;;;;;;;8.21;61.23;99116.50;5126932;27;41592;-83
2023/02/01 16:15:22;;;;;;;6.73;1.90;;;;;;;8.24;61.26;99121.63;5093136;28;41898;-82
2023/02/01 16:17:49;;;;;;;6.37;2.33;;;;;;;8.22;61.27;99123.50;5092522;28;42227;-82
2023/02/01 16:20:18;;;;;;;8.13;2.33;;;;;;;8.07;61.47;99112.81;5093886;28;40080;-82
2023/02/01 16:22:45;;;;;;;7.97;2.57;;;;;;;8.22;61.00;99133.19;5092509;28;41619;-83
2023/02/01 16:25:17;;;;;;;7.47;2.20;;;;;;;8.16;61.28;99131.69;5109890;28;42811;-83
2023/02/01 16:27:44;;;;;;;4.60;1.83;;;;;;;8.14;61.44;99140.63;5075502;28;41327;-83
2023/02/01 16:30:14;;;;;;;9.10;2.10;;;;;;;8.13;61.24;99139.78;5075931;28;40583;-82
2023/02/01 16:32:42;;;;;;;7.83;2.30;;;;;;;8.07;61.63;99140.06;5092541;28;41405;-83
2023/02/01 16:35:18;;;;;;;4.73;1.70;;;;;;;8.01;61.73;99124.53;5092544;28;43471;-83
2023/02/01 16:37:47;;;;;;;6.33;1.93;;;;;;;7.96;61.88;99100.16;5091884;28;43091;-82
2023/02/01 16:40:16;;;;;;;8.77;2.33;;;;;;;7.94;62.27;99113.41;5075766;28;38198;-83
2023/02/01 16:42:43;;;;;;;8.37;2.07;;;;;;;8.08;62.23;99154.09;5092197;28;41211;-83
2023/02/01 16:45:13;;;;;;;5.80;2.00;;;;;;;8.09;61.87;99137.34;5075692;28;41679;-82
2023/02/01 16:47:46;;;;;;;6.73;2.30;;;;;;;7.92;62.35;99117.03;5091444;28;42824;-85
2023/02/01 16:50:17;;;;;;;7.70;1.97;;;;;;;8.06;62.66;99148.03;5076006;28;39122;-83
2023/02/01 16:52:45;;;;;;;4.20;1.73;;;;;;;8.06;62.36;99138.34;5075545;28;41991;-83
2023/02/01 16:55:15;;;;;;;7.53;2.43;;;;;;;7.83;62.41;99114.84;5109336;28;42003;-82
2023/02/01 16:57:43;;;;;;;7.93;1.97;;;;;;;8.07;62.23;99149.75;5091868;28;42173;-81
2023/02/01 17:00:15;;;;;;;5.23;1.80;;;;;;;8.10;62.69;99155.72;5092398;28;40031;-81
2023/02/01 17:02:45;;;;;;;5.50;1.90;;;;;;;8.06;62.95;99162.06;5075064;28;42551;-80
2023/02/01 17:05:13;;;;;;;7.40;2.10;;;;;;;7.98;63.04;99150.19;5075464;28;41342;-81
2023/02/01 17:07:42;;;;;;;7.97;2.30;;;;;;;8.00;63.02;99151.84;5075042;28;41415;-82
2023/02/01 17:10:22;;;;;;;7.77;2.20;;;;;;;7.90;63.93;99126.81;5075559;28;39166;-80
2023/02/01 17:12:50;;;;;;;9.00;2.80;;;;;;;7.85;64.56;99153.41;5092944;28;41603;-84
2023/02/01 17:15:19;;;;;;;9.03;2.10;;;;;;;7.86;65.60;99146.34;5092026;28;42986;-81
2023/02/01 17:17:48;;;;;;;7.13;2.50;;;;;;;7.83;65.89;99157.03;5092659;28;42280;-82
2023/02/01 17:20:21;;;;;;;5.23;2.20;;;;;;;7.83;66.75;99146.47;5126168;27;39888;-82
2023/02/01 17:22:49;;;;;;;5.20;2.00;;;;;;;7.63;67.58;99133.38;5108467;28;41778;-82
2023/02/01 17:25:20;;;;;;;6.80;2.07;;;;;;;7.51;68.77;99125.13;5091591;28;43785;-81
2023/02/01 17:27:48;;;;;;;7.03;2.03;;;;;;;7.63;68.51;99143.94;5126035;27;41493;-80
2023/02/01 17:30:16;;;;;;;7.80;2.13;;;;;;;7.50;69.54;99133.94;5091748;28;39905;-82
2023/02/01 17:32:46;;;;;;;7.70;2.50;;;;;;;7.21;70.33;99084.34;5091275;28;43035;-82
2023/02/01 17:35:20;;;;;;;8.53;2.67;;;;;;;7.50;70.43;99144.50;5091620;28;42994;-82
2023/02/01 17:37:48;;;;;;;6.77;1.97;;;;;;;7.42;70.64;99136.06;5091392;28;41199;-80
2023/02/01 17:40:17;;;;;;;9.23;1.90;;;;;;;7.43;70.76;99137.75;5074493;28;40106;-81
2023/02/01 17:42:45;;;;;;;8.37;2.10;;;;;;;7.39;70.67;99143.25;5092435;28;42708;-81
2023/02/01 17:45:27;;;;;;;9.70;2.60;;;;;;;7.31;70.77;99122.50;5091197;28;43136;-80
2023/02/01 17:47:57;;;;;;;8.20;2.73;;;;;;;7.40;70.55;99127.38;5090983;28;43144;-80
2023/02/01 17:50:28;;;;;;;7.17;2.57;;;;;;;7.48;70.67;99134.94;5074688;28;38772;-81
2023/02/01 17:52:55;;;;;;;9.87;2.40;;;;;;;7.45;70.78;99142.97;5091137;28;40544;-81
2023/02/01 17:55:25;;;;;;;7.37;2.20;;;;;;;7.48;70.44;99135.78;5108545;28;43094;-83
2023/02/01 17:57:54;;;;;;;5.07;1.77;;;;;;;7.51;70.20;99146.19;5091278;28;41325;-80
2023/02/01 18:00:22;;;;;;;6.53;2.00;;;;;;;7.43;69.95;99124.59;5077859;28;38834;-82
2023/02/01 18:02:49;;;;;;;10.53;2.63;;;;;;;7.56;69.55;99138.91;5077391;28;41857;-80
2023/02/01 18:05:22;;;;;;;6.23;2.10;;;;;;;7.47;69.34;99127.94;5111567;28;42342;-81
2023/02/01 18:07:50;;;;;;;7.57;2.57;;;;;;;7.28;69.14;99075.25;5094332;28;40959;-81
2023/02/01 18:10:19;;;;;;;8.07;3.80;;;;;;;7.63;68.72;99143.94;5077501;28;39084;-80
